Time;durP1;ratioP1;P1;durP2;ratioP2;P2;SDS_P1;SDS_P2;PMS_P1;PMS_P2;Temp;Humidity;BMP_temperature;BMP_pressure;BME280_temperature;BME280_humidity;BME280_pressure;Samples;Min_cycle;Max_cycle;Signal;HPM_P1;HPM_P2
2023/06/21 00:01:04;;;;;;;10.73;7.25;;;;;;;;;;5093016;28;20040;-68
2023/06/21 00:03:29;;;;;;;11.90;7.82;;;;;;;;;;5093314;28;20020;-68
2023/06/21 00:05:55;;;;;;;12.52;8.43;;;;;;;;;;5093114;28;20394;-68
2023/06/21 00:08:21;;;;;;;16.98;8.80;;;;;;;;;;5093636;28;20174;-69
2023/06/21 00:10:47;;;;;;;14.63;8.73;;;;;;;;;;5093041;28;20095;-68
2023/06/21 00:13:13;;;;;;;16.38;10.60;;;;;;;;;;5093149;28;20112;-68
2023/06/21 00:15:38;;;;;;;11.98;7.82;;;;;;;;;;5093098;28;20016;-68
2023/06/21 00:18:03;;;;;;;17.85;10.40;;;;;;;;;;5093405;28;20035;-68
2023/06/21 00:20:28;;;;;;;17.02;11.27;;;;;;;;;;5093020;28;20016;-68
2023/06/21 00:22:55;;;;;;;19.05;13.52;;;;;;;;;;5093180;28;20475;-68
2023/06/21 00:25:21;;;;;;;15.45;10.27;;;;;;;;;;5093161;28;20408;-68
2023/06/21 00:27:47;;;;;;;18.35;10.88;;;;;;;;;;5074945;28;20034;-68
2023/06/21 00:30:12;;;;;;;12.32;7.93;;;;;;;;;;5093192;28;20031;-68
2023/06/21 00:32:38;;;;;;;18.10;11.52;;;;;;;;;;5092882;28;20020;-68
2023/06/21 00:35:04;;;;;;;19.30;11.02;;;;;;;;;;5093101;28;20028;-68
2023/06/21 00:37:30;;;;;;;19.30;11.73;;;;;;;;;;5093186;28;20020;-68
2023/06/21 00:39:55;;;;;;;17.20;10.10;;;;;;;;;;5092868;28;20527;-68
2023/06/21 00:42:20;;;;;;;16.63;9.98;;;;;;;;;;5093010;28;20023;-68
2023/06/21 00:44:46;;;;;;;17.05;10.48;;;;;;;;;;5092932;28;20070;-68
2023/06/21 00:47:11;;;;;;;17.45;10.02;;;;;;;;;;5092838;28;20473;-69
2023/06/21 00:49:36;;;;;;;15.50;9.45;;;;;;;;;;5092958;28;20020;-68
2023/06/21 00:52:03;;;;;;;12.75;9.15;;;;;;;;;;5093206;28;20419;-69
2023/06/21 00:54:34;;;;;;;22.58;13.57;;;;;;;;;;5093840;28;20028;-68
2023/06/21 00:57:03;;;;;;;17.90;11.82;;;;;;;;;;5078538;28;20020;-68
2023/06/21 00:59:29;;;;;;;23.15;11.95;;;;;;;;;;5078297;28;20497;-68
2023/06/21 01:01:55;;;;;;;17.33;10.45;;;;;;;;;;5096592;28;20140;-68
2023/06/21 01:04:22;;;;;;;23.80;11.52;;;;;;;;;;5096430;28;20034;-69
2023/06/21 01:07:05;;;;;;;18.85;10.55;;;;;;;;;;5078677;28;20031;-69
2023/06/21 01:09:40;;;;;;;19.27;12.00;;;;;;;;;;5096582;28;20032;-68
2023/06/21 01:12:27;;;;;;;21.58;10.90;;;;;;;;;;5096601;28;20435;-69
2023/06/21 01:15:02;;;;;;;21.65;12.68;;;;;;;;;;5096293;28;20020;-69
2023/06/21 01:17:29;;;;;;;22.05;11.55;;;;;;;;;;5096490;28;20016;-69
2023/06/21 01:19:56;;;;;;;21.40;13.40;;;;;;;;;;5078081;28;20057;-69
2023/06/21 01:22:24;;;;;;;19.33;11.63;;;;;;;;;;5078095;28;20024;-68
2023/06/21 01:25:17;;;;;;;16.48;10.45;;;;;;;;;;5095992;28;20046;-69
2023/06/21 01:28:03;;;;;;;22.95;13.80;;;;;;;;;;5096283;28;20077;-69
2023/06/21 01:30:30;;;;;;;21.63;13.27;;;;;;;;;;5096699;28;20073;-69
2023/06/21 01:32:56;;;;;;;22.40;13.05;;;;;;;;;;5077949;28;20020;-69
2023/06/21 01:35:21;;;;;;;19.90;11.00;;;;;;;;;;5095897;28;20047;-69
2023/06/21 01:37:50;;;;;;;20.23;11.75;;;;;;;;;;5096149;28;20032;-69
2023/06/21 01:40:15;;;;;;;21.27;12.45;;;;;;;;;;5095699;28;20028;-69
2023/06/21 01:42:41;;;;;;;20.92;12.30;;;;;;;;;;5095742;28;20077;-69
2023/06/21 01:45:06;;;;;;;21.00;11.88;;;;;;;;;;5095647;28;20069;-70
2023/06/21 01:47:33;;;;;;;20.30;11.82;;;;;;;;;;5077566;28;20028;-69
2023/06/21 01:49:59;;;;;;;20.73;11.68;;;;;;;;;;5077478;28;20028;-69
2023/06/21 01:52:24;;;;;;;18.15;11.63;;;;;;;;;;5077654;28;20443;-69
2023/06/21 01:54:50;;;;;;;20.70;11.43;;;;;;;;;;5077649;28;20473;-69
2023/06/21 01:57:17;;;;;;;21.75;13.32;;;;;;;;;;5077731;28;20032;-69
2023/06/21 01:59:43;;;;;;;23.58;12.95;;;;;;;;;;5095181;28;20036;-69
2023/06/21 02:02:08;;;;;;;19.80;11.25;;;;;;;;;;5078020;28;20020;-70
2023/06/21 02:04:35;;;;;;;21.60;12.77;;;;;;;;;;5077244;28;20392;-69
2023/06/21 02:07:02;;;;;;;20.45;11.77;;;;;;;;;;5076692;28;20107;-69
2023/06/21 02:09:27;;;;;;;18.30;12.00;;;;;;;;;;5077260;28;20056;-69
2023/06/21 02:11:53;;;;;;;21.15;12.63;;;;;;;;;;5077614;28;20050;-69
2023/06/21 02:14:18;;;;;;;23.88;14.20;;;;;;;;;;5095745;28;20031;-69
2023/06/21 02:16:44;;;;;;;22.00;12.60;;;;;;;;;;5077067;28;20107;-69
2023/06/21 02:19:09;;;;;;;22.92;13.95;;;;;;;;;;5095729;28;20024;-69
2023/06/21 02:21:37;;;;;;;19.45;11.65;;;;;;;;;;5080667;28;20028;-69
2023/06/21 02:24:02;;;;;;;16.83;10.35;;;;;;;;;;5074986;28;20036;-69
2023/06/21 02:26:28;;;;;;;21.67;12.18;;;;;;;;;;5060091;28;20063;-69
2023/06/21 02:28:53;;;;;;;20.25;12.88;;;;;;;;;;5074270;28;20031;-69
2023/06/21 02:31:19;;;;;;;19.65;12.85;;;;;;;;;;5074348;28;20090;-69
2023/06/21 02:33:45;;;;;;;22.67;12.55;;;;;;;;;;5074822;28;20028;-69
2023/06/21 02:36:10;;;;;;;21.25;13.00;;;;;;;;;;5074393;28;20097;-69
2023/06/21 02:38:35;;;;;;;24.33;12.50;;;;;;;;;;5073280;28;20070;-70
2023/06/21 02:41:01;;;;;;;20.58;13.57;;;;;;;;;;5076756;28;20439;-69
2023/06/21 02:43:26;;;;;;;22.23;13.18;;;;;;;;;;5074613;28;20020;-69
2023/06/21 02:45:53;;;;;;;19.20;11.85;;;;;;;;;;5074105;28;20027;-69
2023/06/21 02:48:18;;;;;;;19.63;12.48;;;;;;;;;;5074541;28;20450;-69
2023/06/21 02:50:43;;;;;;;19.40;11.65;;;;;;;;;;5075799;28;20067;-69
2023/06/21 02:53:08;;;;;;;20.67;12.32;;;;;;;;;;5094331;28;20074;-69
2023/06/21 02:55:34;;;;;;;19.15;11.75;;;;;;;;;;5094121;28;20469;-69
2023/06/21 02:57:59;;;;;;;21.52;13.00;;;;;;;;;;5094261;28;20116;-69
2023/06/21 03:00:29;;;;;;;22.38;12.55;;;;;;;;;;5091226;28;20020;-69
2023/06/21 03:02:59;;;;;;;21.00;11.85;;;;;;;;;;5095323;28;20115;-70
2023/06/21 03:05:26;;;;;;;18.58;12.18;;;;;;;;;;5095427;28;20027;-69
2023/06/21 03:07:52;;;;;;;21.90;12.20;;;;;;;;;;5076648;28;20031;-69
2023/06/21 03:10:19;;;;;;;19.55;11.43;;;;;;;;;;5095564;28;20020;-69
2023/06/21 03:12:44;;;;;;;18.27;11.80;;;;;;;;;;5095386;28;20035;-69
2023/06/21 03:15:11;;;;;;;19.27;11.82;;;;;;;;;;5095202;28;20016;-69
2023/06/21 03:17:37;;;;;;;23.70;12.65;;;;;;;;;;5077079;28;20401;-69
2023/06/21 03:20:08;;;;;;;21.65;12.23;;;;;;;;;;5076797;28;20027;-69
2023/06/21 03:22:34;;;;;;;19.67;11.68;;;;;;;;;;5071310;28;20036;-69
2023/06/21 03:24:59;;;;;;;21.15;12.23;;;;;;;;;;5074936;28;20025;-69
2023/06/21 03:27:24;;;;;;;19.77;11.63;;;;;;;;;;5091028;28;20051;-69
2023/06/21 03:29:49;;;;;;;18.60;11.45;;;;;;;;;;5094927;28;20095;-69
2023/06/21 03:32:15;;;;;;;22.13;13.52;;;;;;;;;;5095223;28;20389;-69
2023/06/21 03:34:40;;;;;;;18.95;11.00;;;;;;;;;;5095314;28;20028;-69
2023/06/21 03:37:06;;;;;;;19.85;11.50;;;;;;;;;;5095025;28;20020;-69
2023/06/21 03:39:31;;;;;;;22.67;11.32;;;;;;;;;;5082638;28;20029;-69
2023/06/21 03:41:56;;;;;;;19.83;11.98;;;;;;;;;;5075615;28;20051;-70
2023/06/21 03:44:21;;;;;;;15.63;9.82;;;;;;;;;;5074303;28;20024;-69
2023/06/21 03:46:47;;;;;;;20.27;12.23;;;;;;;;;;5074506;28;20033;-69
2023/06/21 03:49:12;;;;;;;20.63;10.57;;;;;;;;;;5075184;28;20020;-69
2023/06/21 03:51:37;;;;;;;19.42;11.75;;;;;;;;;;5057605;28;20417;-69
2023/06/21 03:54:03;;;;;;;19.83;11.65;;;;;;;;;;5057777;28;20028;-69
2023/06/21 03:56:28;;;;;;;21.55;11.10;;;;;;;;;;5068219;28;20020;-70
2023/06/21 03:58:54;;;;;;;19.05;11.02;;;;;;;;;;5095498;28;20050;-69
2023/06/21 04:01:19;;;;;;;15.55;9.68;;;;;;;;;;5095494;28;20042;-69
2023/06/21 04:03:44;;;;;;;20.73;11.10;;;;;;;;;;5095582;28;20047;-69
2023/06/21 04:06:10;;;;;;;19.08;10.98;;;;;;;;;;5094459;28;20024;-69
2023/06/21 04:08:35;;;;;;;17.88;10.63;;;;;;;;;;5095626;28;20039;-69
2023/06/21 04:11:00;;;;;;;18.80;10.93;;;;;;;;;;5094915;28;20024;-69
2023/06/21 04:13:25;;;;;;;15.00;9.45;;;;;;;;;;5094887;28;20027;-69
2023/06/21 04:15:51;;;;;;;21.55;11.07;;;;;;;;;;5095211;28;20027;-69
2023/06/21 04:18:16;;;;;;;20.48;12.15;;;;;;;;;;5094241;28;20370;-69
2023/06/21 04:20:41;;;;;;;21.45;11.02;;;;;;;;;;5095482;28;20106;-69
2023/06/21 04:23:07;;;;;;;16.55;9.93;;;;;;;;;;5094708;28;20028;-69
2023/06/21 04:25:32;;;;;;;19.40;10.90;;;;;;;;;;5093302;28;20120;-69
2023/06/21 04:27:57;;;;;;;18.52;10.65;;;;;;;;;;5094852;28;20016;-69
2023/06/21 04:30:23;;;;;;;18.38;10.80;;;;;;;;;;5096586;28;20028;-69
2023/06/21 04:32:48;;;;;;;18.58;10.77;;;;;;;;;;5099111;28;20504;-69
2023/06/21 04:35:17;;;;;;;15.70;9.60;;;;;;;;;;5092978;28;20494;-69
2023/06/21 04:37:44;;;;;;;18.38;11.30;;;;;;;;;;5079259;28;20035;-69
2023/06/21 04:40:20;;;;;;;18.48;9.38;;;;;;;;;;5044182;28;20505;-69
2023/06/21 04:42:46;;;;;;;20.98;12.32;;;;;;;;;;5060936;28;20027;-69
2023/06/21 04:45:16;;;;;;;19.65;11.52;;;;;;;;;;5060095;28;20111;-70
2023/06/21 04:47:42;;;;;;;20.00;12.70;;;;;;;;;;5060080;28;20032;-69
2023/06/21 04:50:10;;;;;;;22.85;13.10;;;;;;;;;;5077826;28;20048;-69
2023/06/21 04:52:37;;;;;;;25.80;15.45;;;;;;;;;;5077910;28;20043;-69
2023/06/21 04:55:06;;;;;;;25.25;15.02;;;;;;;;;;5077750;28;20051;-69
2023/06/21 04:57:32;;;;;;;28.58;15.38;;;;;;;;;;5089657;28;20035;-69
2023/06/21 04:59:57;;;;;;;28.38;15.57;;;;;;;;;;5079385;28;20024;-69
2023/06/21 05:02:23;;;;;;;22.10;13.85;;;;;;;;;;5075898;28;20109;-69
2023/06/21 05:04:48;;;;;;;24.88;13.95;;;;;;;;;;5059670;28;20115;-69
2023/06/21 05:07:14;;;;;;;28.92;15.45;;;;;;;;;;5077447;28;20078;-69
2023/06/21 05:09:39;;;;;;;23.15;14.95;;;;;;;;;;5059055;28;20032;-69
2023/06/21 05:12:07;;;;;;;22.63;12.80;;;;;;;;;;5076480;28;20029;-69
2023/06/21 05:14:33;;;;;;;25.75;15.75;;;;;;;;;;5059322;28;20021;-70
2023/06/21 05:16:58;;;;;;;23.10;13.32;;;;;;;;;;5076811;28;20027;-70
2023/06/21 05:19:23;;;;;;;25.38;14.43;;;;;;;;;;5076374;28;20027;-69
2023/06/21 05:21:48;;;;;;;23.15;12.18;;;;;;;;;;5071223;28;20081;-69
2023/06/21 05:24:14;;;;;;;21.15;12.07;;;;;;;;;;5096938;28;20515;-69
2023/06/21 05:26:44;;;;;;;28.52;12.68;;;;;;;;;;5077973;28;20106;-69
2023/06/21 05:29:09;;;;;;;14.80;9.23;;;;;;;;;;5097174;28;20110;-69
2023/06/21 05:31:34;;;;;;;14.60;10.15;;;;;;;;;;5094325;28;20052;-69
2023/06/21 05:34:00;;;;;;;16.75;9.00;;;;;;;;;;5096471;28;20032;-69
2023/06/21 05:36:25;;;;;;;16.15;8.77;;;;;;;;;;5078101;28;20082;-70
2023/06/21 05:38:50;;;;;;;16.30;8.52;;;;;;;;;;5096431;28;20027;-69
2023/06/21 05:41:15;;;;;;;14.00;8.20;;;;;;;;;;5095016;28;20020;-69
2023/06/21 05:43:41;;;;;;;13.10;7.75;;;;;;;;;;5086036;28;20451;-69
2023/06/21 05:46:06;;;;;;;10.77;7.15;;;;;;;;;;5077882;28;20078;-69
2023/06/21 05:48:31;;;;;;;11.40;6.60;;;;;;;;;;5077743;28;20051;-69
2023/06/21 05:50:56;;;;;;;9.88;6.72;;;;;;;;;;5080584;28;20029;-70
2023/06/21 05:53:22;;;;;;;13.68;7.18;;;;;;;;;;5075440;28;20025;-69
2023/06/21 05:55:47;;;;;;;12.65;7.35;;;;;;;;;;5075662;28;20021;-70
2023/06/21 05:58:12;;;;;;;11.38;6.00;;;;;;;;;;5075847;28;20116;-69
2023/06/21 06:00:38;;;;;;;10.80;6.15;;;;;;;;;;5058943;28;20342;-69
2023/06/21 06:03:03;;;;;;;10.88;5.93;;;;;;;;;;5077663;28;20020;-69
2023/06/21 06:05:28;;;;;;;9.75;5.60;;;;;;;;;;5095676;28;20024;-71
2023/06/21 06:07:53;;;;;;;12.18;6.18;;;;;;;;;;5069268;28;20035;-71
2023/06/21 06:10:19;;;;;;;9.63;5.90;;;;;;;;;;5056803;28;20031;-71
2023/06/21 06:12:44;;;;;;;10.80;5.90;;;;;;;;;;5066619;28;20036;-71
2023/06/21 06:15:09;;;;;;;9.18;6.15;;;;;;;;;;5073446;28;20027;-71
2023/06/21 06:17:35;;;;;;;13.07;6.30;;;;;;;;;;5075910;28;20030;-72
2023/06/21 06:20:05;;;;;;;10.25;6.55;;;;;;;;;;5074565;28;20025;-71
2023/06/21 06:22:32;;;;;;;11.73;6.35;;;;;;;;;;5076834;28;20028;-73
2023/06/21 06:24:57;;;;;;;14.35;7.25;;;;;;;;;;5074586;28;20433;-72
2023/06/21 06:27:23;;;;;;;11.52;6.80;;;;;;;;;;5076916;28;20028;-72
2023/06/21 06:29:48;;;;;;;11.27;6.90;;;;;;;;;;5063168;28;20023;-71
2023/06/21 06:32:13;;;;;;;12.43;7.22;;;;;;;;;;5092379;28;20028;-72
2023/06/21 06:34:39;;;;;;;11.57;7.57;;;;;;;;;;5085530;28;20047;-72
2023/06/21 06:37:04;;;;;;;14.57;7.95;;;;;;;;;;5091019;28;20044;-71
2023/06/21 06:39:30;;;;;;;16.00;8.50;;;;;;;;;;5083534;28;20020;-71
2023/06/21 06:41:55;;;;;;;17.27;9.27;;;;;;;;;;5094413;28;20048;-71
2023/06/21 06:44:20;;;;;;;18.33;10.63;;;;;;;;;;5089025;28;20458;-71
2023/06/21 06:46:45;;;;;;;13.38;8.18;;;;;;;;;;5073975;28;20020;-71
2023/06/21 06:49:11;;;;;;;14.32;7.97;;;;;;;;;;5076514;28;20036;-72
2023/06/21 06:51:36;;;;;;;14.85;8.23;;;;;;;;;;5074266;28;20488;-71
2023/06/21 06:54:02;;;;;;;20.85;9.30;;;;;;;;;;5073262;28;20035;-72
2023/06/21 06:56:27;;;;;;;17.85;10.52;;;;;;;;;;5070075;28;20031;-71
2023/06/21 06:58:55;;;;;;;20.23;11.10;;;;;;;;;;5073431;28;20103;-71
2023/06/21 07:01:22;;;;;;;17.40;10.05;;;;;;;;;;5074111;28;20056;-71
2023/06/21 07:03:47;;;;;;;22.00;10.30;;;;;;;;;;5073599;28;20167;-71
2023/06/21 07:06:12;;;;;;;20.65;11.02;;;;;;;;;;5074100;28;20021;-71
2023/06/21 07:08:42;;;;;;;19.13;12.23;;;;;;;;;;5073552;28;20394;-71
2023/06/21 07:11:08;;;;;;;20.73;12.27;;;;;;;;;;5082411;28;20051;-71
2023/06/21 07:13:33;;;;;;;25.52;12.27;;;;;;;;;;5093877;28;20028;-71
2023/06/21 07:15:59;;;;;;;24.50;12.55;;;;;;;;;;5089009;28;20543;-71
2023/06/21 07:18:24;;;;;;;20.98;12.70;;;;;;;;;;5073642;28;20104;-71
2023/06/21 07:20:50;;;;;;;27.55;12.93;;;;;;;;;;5073251;28;20385;-71
2023/06/21 07:23:15;;;;;;;26.20;13.18;;;;;;;;;;5073518;28;20028;-71
2023/06/21 07:25:40;;;;;;;23.88;12.57;;;;;;;;;;5073281;28;20024;-71
2023/06/21 07:28:06;;;;;;;24.98;12.90;;;;;;;;;;5075552;28;20390;-71
2023/06/21 07:30:31;;;;;;;19.48;12.63;;;;;;;;;;5072880;28;20111;-71
2023/06/21 07:32:56;;;;;;;24.60;12.30;;;;;;;;;;5073272;28;20016;-71
2023/06/21 07:35:22;;;;;;;20.95;12.30;;;;;;;;;;5055173;28;20394;-71
2023/06/21 07:37:47;;;;;;;23.65;13.73;;;;;;;;;;5078659;28;20031;-71
2023/06/21 07:40:13;;;;;;;24.23;12.93;;;;;;;;;;5093243;28;20019;-71
2023/06/21 07:42:38;;;;;;;24.65;13.02;;;;;;;;;;5073233;28;20027;-72
2023/06/21 07:45:07;;;;;;;24.63;14.18;;;;;;;;;;5074487;28;20024;-71
2023/06/21 07:47:32;;;;;;;26.63;14.45;;;;;;;;;;5072816;28;20024;-71
2023/06/21 07:49:59;;;;;;;23.23;13.40;;;;;;;;;;5069160;28;20044;-71
2023/06/21 07:52:24;;;;;;;25.40;13.80;;;;;;;;;;5055045;28;20484;-71
2023/06/21 07:54:49;;;;;;;27.00;13.32;;;;;;;;;;5082999;28;20054;-71
2023/06/21 07:57:16;;;;;;;25.65;13.32;;;;;;;;;;5071597;28;20029;-71
2023/06/21 07:59:41;;;;;;;27.27;13.25;;;;;;;;;;5054642;28;20035;-71
2023/06/21 08:02:07;;;;;;;26.60;14.88;;;;;;;;;;5075323;28;20537;-71
2023/06/21 08:04:32;;;;;;;29.17;14.63;;;;;;;;;;5072378;28;20032;-71
2023/06/21 08:06:57;;;;;;;27.73;14.15;;;;;;;;;;5072682;28;20027;-71
2023/06/21 08:09:23;;;;;;;27.95;14.70;;;;;;;;;;5073120;28;20020;-71
2023/06/21 08:11:48;;;;;;;26.33;13.05;;;;;;;;;;5060570;28;20028;-71
2023/06/21 08:14:13;;;;;;;27.63;12.82;;;;;;;;;;5072924;28;20017;-71
2023/06/21 08:16:38;;;;;;;28.42;12.80;;;;;;;;;;5074216;28;20488;-71
2023/06/21 08:19:04;;;;;;;29.77;13.13;;;;;;;;;;5092140;28;20032;-72
2023/06/21 08:21:29;;;;;;;23.20;12.18;;;;;;;;;;5088674;28;20074;-71
2023/06/21 08:23:54;;;;;;;25.70;11.23;;;;;;;;;;5092980;28;20497;-71
2023/06/21 08:26:20;;;;;;;22.50;11.60;;;;;;;;;;5088292;28;20029;-72
2023/06/21 08:28:45;;;;;;;24.05;11.73;;;;;;;;;;5072862;28;20021;-72
2023/06/21 08:31:11;;;;;;;23.80;11.32;;;;;;;;;;5072267;28;20021;-71
2023/06/21 08:33:36;;;;;;;21.52;10.27;;;;;;;;;;5053132;28;20032;-71
2023/06/21 08:36:02;;;;;;;21.40;10.10;;;;;;;;;;5072332;28;20051;-71
2023/06/21 08:38:27;;;;;;;18.55;9.77;;;;;;;;;;5061921;28;20025;-71
2023/06/21 08:40:55;;;;;;;19.77;10.35;;;;;;;;;;5072519;28;20027;-71
2023/06/21 08:43:20;;;;;;;24.08;10.43;;;;;;;;;;5063410;28;20466;-72
2023/06/21 08:45:45;;;;;;;16.67;9.38;;;;;;;;;;5092614;28;20024;-72
2023/06/21 08:48:11;;;;;;;16.35;9.25;;;;;;;;;;5090527;28;20253;-71
2023/06/21 08:50:39;;;;;;;14.35;8.38;;;;;;;;;;5072040;28;20036;-71
2023/06/21 08:53:06;;;;;;;17.23;10.40;;;;;;;;;;5054129;28;20029;-71
2023/06/21 08:55:32;;;;;;;21.27;12.65;;;;;;;;;;5069372;28;20032;-71
2023/06/21 08:57:59;;;;;;;17.48;10.13;;;;;;;;;;5074528;28;20024;-71
2023/06/21 09:00:45;;;;;;;15.55;9.60;;;;;;;;;;5095945;23;20041;-72
2023/06/21 09:03:19;;;;;;;17.98;9.23;;;;;;;;;;5071080;28;20050;-71
2023/06/21 09:06:03;;;;;;;20.30;10.95;;;;;;;;;;5070619;28;20013;-72
2023/06/21 09:08:31;;;;;;;19.92;11.75;;;;;;;;;;5071226;28;20036;-71
2023/06/21 09:10:57;;;;;;;19.17;10.50;;;;;;;;;;5070657;28;20494;-72
2023/06/21 09:13:24;;;;;;;20.83;10.60;;;;;;;;;;5070677;28;20103;-72
2023/06/21 09:15:51;;;;;;;17.70;10.43;;;;;;;;;;5073281;28;20025;-72
2023/06/21 09:18:16;;;;;;;19.48;10.60;;;;;;;;;;5060941;28;20437;-72
2023/06/21 09:20:47;;;;;;;21.45;11.48;;;;;;;;;;5054571;28;20017;-72
2023/06/21 09:23:13;;;;;;;22.27;11.55;;;;;;;;;;5060673;28;20394;-73
2023/06/21 09:25:38;;;;;;;24.45;13.18;;;;;;;;;;5055851;28;20017;-73
2023/06/21 09:28:03;;;;;;;24.65;11.93;;;;;;;;;;5072013;28;20040;-72
2023/06/21 09:30:29;;;;;;;22.17;11.40;;;;;;;;;;5074227;28;20021;-72
2023/06/21 09:32:54;;;;;;;21.75;11.88;;;;;;;;;;5070552;28;20025;-72
2023/06/21 09:35:20;;;;;;;21.17;11.57;;;;;;;;;;5055745;28;20017;-72
2023/06/21 09:37:45;;;;;;;20.30;12.15;;;;;;;;;;5062749;28;20480;-72
2023/06/21 09:40:12;;;;;;;23.42;12.02;;;;;;;;;;5075261;28;20034;-72
2023/06/21 09:42:41;;;;;;;19.00;11.15;;;;;;;;;;5071812;28;20025;-72
2023/06/21 09:45:17;;;;;;;23.02;11.85;;;;;;;;;;5054234;28;20024;-72
2023/06/21 09:47:43;;;;;;;20.33;11.32;;;;;;;;;;5053864;28;20072;-72
2023/06/21 09:50:09;;;;;;;22.00;11.32;;;;;;;;;;5055157;28;20052;-72
2023/06/21 09:52:35;;;;;;;22.58;10.90;;;;;;;;;;5055198;28;20025;-72
2023/06/21 09:55:01;;;;;;;17.15;10.13;;;;;;;;;;5068005;28;20470;-72
2023/06/21 09:57:30;;;;;;;21.15;11.10;;;;;;;;;;5073926;28;20016;-72
2023/06/21 09:59:57;;;;;;;20.40;10.25;;;;;;;;;;5074559;28;20550;-72
2023/06/21 10:02:22;;;;;;;22.30;10.90;;;;;;;;;;5073124;28;20045;-72
2023/06/21 10:04:47;;;;;;;17.60;10.25;;;;;;;;;;5074887;28;20031;-72
2023/06/21 10:07:14;;;;;;;18.33;10.77;;;;;;;;;;5072236;28;20074;-72
2023/06/21 10:09:40;;;;;;;20.67;9.55;;;;;;;;;;5054980;28;20054;-72
2023/06/21 10:12:08;;;;;;;13.35;9.13;;;;;;;;;;5054678;28;20024;-72
2023/06/21 10:14:33;;;;;;;15.18;8.45;;;;;;;;;;5055473;28;20490;-72
2023/06/21 10:16:59;;;;;;;14.50;7.57;;;;;;;;;;5054303;28;20040;-72
2023/06/21 10:19:27;;;;;;;14.07;8.80;;;;;;;;;;5053640;28;20033;-72
2023/06/21 10:22:04;;;;;;;16.95;8.77;;;;;;;;;;5054775;28;20021;-72
2023/06/21 10:24:36;;;;;;;21.55;10.30;;;;;;;;;;5063737;28;20029;-72
2023/06/21 10:27:04;;;;;;;19.63;11.23;;;;;;;;;;5069584;28;20017;-72
2023/06/21 10:29:31;;;;;;;17.45;10.23;;;;;;;;;;5036344;28;20036;-74
2023/06/21 10:31:58;;;;;;;18.02;10.55;;;;;;;;;;5062893;28;20474;-75
2023/06/21 10:34:27;;;;;;;21.02;10.75;;;;;;;;;;5073491;28;20068;-74
2023/06/21 10:37:11;;;;;;;17.02;9.32;;;;;;;;;;5069107;28;20012;-75
2023/06/21 10:39:37;;;;;;;16.10;8.63;;;;;;;;;;5070039;28;20033;-75
2023/06/21 10:42:03;;;;;;;13.43;8.02;;;;;;;;;;5070703;28;20029;-74
2023/06/21 10:44:28;;;;;;;19.50;8.45;;;;;;;;;;5069585;28;20027;-74
2023/06/21 10:46:55;;;;;;;12.43;7.55;;;;;;;;;;5089690;28;20024;-74
2023/06/21 10:49:21;;;;;;;11.82;6.65;;;;;;;;;;5087365;28;20067;-75
2023/06/21 10:51:47;;;;;;;10.07;6.10;;;;;;;;;;5073921;28;20024;-74
2023/06/21 10:54:12;;;;;;;9.68;5.90;;;;;;;;;;5072232;28;20095;-74
2023/06/21 10:56:38;;;;;;;8.98;5.57;;;;;;;;;;5074008;28;20024;-74
2023/06/21 10:59:04;;;;;;;11.45;6.40;;;;;;;;;;5070941;28;20066;-74
2023/06/21 11:01:29;;;;;;;8.40;5.53;;;;;;;;;;5054857;28;20478;-74
2023/06/21 11:03:56;;;;;;;9.23;5.50;;;;;;;;;;5053641;28;20021;-74
2023/06/21 11:06:22;;;;;;;6.05;4.10;;;;;;;;;;5069633;28;20024;-73
2023/06/21 11:08:48;;;;;;;8.68;4.72;;;;;;;;;;5072525;28;20394;-72
2023/06/21 11:11:40;;;;;;;8.48;3.75;;;;;;;;;;5060877;28;20074;-72
2023/06/21 11:14:06;;;;;;;12.70;5.03;;;;;;;;;;5053496;28;20028;-72
2023/06/21 11:16:36;;;;;;;8.52;4.45;;;;;;;;;;5062369;28;20025;-73
2023/06/21 11:19:10;;;;;;;8.93;5.65;;;;;;;;;;5073706;28;20025;-72
2023/06/21 11:21:41;;;;;;;7.40;4.32;;;;;;;;;;5072192;28;20024;-72
2023/06/21 11:24:08;;;;;;;4.95;3.63;;;;;;;;;;5073329;28;20020;-73
2023/06/21 11:26:57;;;;;;;8.40;4.03;;;;;;;;;;5068077;28;20020;-74
2023/06/21 11:29:26;;;;;;;9.82;3.78;;;;;;;;;;5073532;28;20025;-73
2023/06/21 11:32:12;;;;;;;8.32;4.88;;;;;;;;;;5071524;28;20398;-73
2023/06/21 11:34:50;;;;;;;8.27;3.70;;;;;;;;;;5073147;28;20028;-72
2023/06/21 11:37:33;;;;;;;8.82;4.10;;;;;;;;;;5062031;28;20074;-72
2023/06/21 11:39:59;;;;;;;;;;;;;;;;;;5051233;28;20040;-72
2023/06/21 11:42:26;;;;;;;8.40;4.20;;;;;;;;;;5061597;28;19913;-72
2023/06/21 11:44:53;;;;;;;12.50;4.75;;;;;;;;;;5072981;28;20024;-72
2023/06/21 11:47:19;;;;;;;7.35;3.90;;;;;;;;;;5070582;28;20037;-72
2023/06/21 11:49:56;;;;;;;6.32;4.25;;;;;;;;;;5073378;28;20032;-72
2023/06/21 11:52:22;;;;;;;;;;;;;;;;;;5070515;28;20028;-73
2023/06/21 11:54:47;;;;;;;7.20;3.72;;;;;;;;;;5067365;28;19916;-72
2023/06/21 11:57:13;;;;;;;5.28;3.60;;;;;;;;;;5052700;28;20112;-72
2023/06/21 11:59:38;;;;;;;6.40;3.22;;;;;;;;;;5053087;28;20024;-73
2023/06/21 12:02:14;;;;;;;6.25;3.92;;;;;;;;;;5052800;28;20020;-73
2023/06/21 12:04:41;;;;;;;7.55;3.67;;;;;;;;;;5051447;28;20033;-72
2023/06/21 12:07:06;;;;;;;9.73;4.10;;;;;;;;;;5050299;28;20021;-73
2023/06/21 12:09:31;;;;;;;5.72;3.28;;;;;;;;;;5071564;28;20516;-73
2023/06/21 12:11:57;;;;;;;7.45;3.47;;;;;;;;;;5067807;28;20029;-73
2023/06/21 12:14:22;;;;;;;8.38;3.88;;;;;;;;;;5052687;28;20478;-72
2023/06/21 12:16:51;;;;;;;7.47;4.13;;;;;;;;;;5054855;28;20013;-73
2023/06/21 12:19:16;;;;;;;7.63;3.30;;;;;;;;;;5072637;28;20067;-72
2023/06/21 12:21:42;;;;;;;6.10;3.45;;;;;;;;;;5071158;28;20025;-72
2023/06/21 12:24:07;;;;;;;8.18;3.20;;;;;;;;;;5072687;28;20036;-73
2023/06/21 12:26:33;;;;;;;6.95;3.40;;;;;;;;;;5070855;28;20032;-73
2023/06/21 12:28:58;;;;;;;6.35;3.20;;;;;;;;;;5071313;28;20036;-72
2023/06/21 12:31:25;;;;;;;5.60;3.40;;;;;;;;;;5071329;28;20515;-72
2023/06/21 12:33:55;;;;;;;7.97;3.78;;;;;;;;;;5072954;28;20021;-72
2023/06/21 12:36:26;;;;;;;7.03;3.20;;;;;;;;;;5072341;28;20066;-73
2023/06/21 12:39:02;;;;;;;7.03;3.75;;;;;;;;;;5071598;28;20048;-73
2023/06/21 12:41:29;;;;;;;5.30;3.25;;;;;;;;;;5071167;28;20025;-72
2023/06/21 12:43:59;;;;;;;5.78;3.40;;;;;;;;;;5061640;28;20036;-72
2023/06/21 12:46:24;;;;;;;9.40;4.00;;;;;;;;;;5052405;28;20025;-72
2023/06/21 12:48:57;;;;;;;4.68;3.40;;;;;;;;;;5051244;28;20025;-72
2023/06/21 12:51:24;;;;;;;6.55;3.47;;;;;;;;;;5053853;28;20027;-73
2023/06/21 12:54:00;;;;;;;5.07;3.15;;;;;;;;;;5056126;28;20021;-72
2023/06/21 12:56:30;;;;;;;7.63;4.65;;;;;;;;;;5075518;28;20422;-73
2023/06/21 12:58:55;;;;;;;6.90;3.50;;;;;;;;;;5074425;28;20021;-72
2023/06/21 13:01:20;;;;;;;7.22;3.88;;;;;;;;;;5055849;28;20078;-72
2023/06/21 13:03:46;;;;;;;8.45;3.90;;;;;;;;;;5056879;28;20547;-73
2023/06/21 13:06:11;;;;;;;6.70;3.20;;;;;;;;;;5076165;28;20016;-72
2023/06/21 13:08:36;;;;;;;6.15;3.55;;;;;;;;;;5074722;28;20478;-73
2023/06/21 13:11:02;;;;;;;6.03;3.28;;;;;;;;;;5064129;28;20029;-72
2023/06/21 13:13:27;;;;;;;7.00;3.20;;;;;;;;;;5058337;28;20020;-73
2023/06/21 13:15:53;;;;;;;6.78;3.65;;;;;;;;;;5054537;28;20474;-72
2023/06/21 13:18:19;;;;;;;5.00;3.70;;;;;;;;;;5055790;28;20360;-73
2023/06/21 13:20:45;;;;;;;5.55;3.00;;;;;;;;;;5071172;28;20031;-73
2023/06/21 13:23:10;;;;;;;8.05;3.58;;;;;;;;;;5057159;28;20032;-73
2023/06/21 13:25:35;;;;;;;8.18;3.47;;;;;;;;;;5076006;28;20024;-72
2023/06/21 13:28:01;;;;;;;6.60;3.70;;;;;;;;;;5070957;28;20024;-72
2023/06/21 13:30:26;;;;;;;7.90;3.90;;;;;;;;;;5075434;28;20107;-72
2023/06/21 13:32:51;;;;;;;6.97;3.92;;;;;;;;;;5075520;28;20025;-72
2023/06/21 13:35:17;;;;;;;7.22;4.65;;;;;;;;;;5075510;28;20393;-72
2023/06/21 13:37:42;;;;;;;6.25;4.43;;;;;;;;;;5069863;28;20475;-73
2023/06/21 13:40:09;;;;;;;6.90;4.32;;;;;;;;;;5055275;28;20021;-73
2023/06/21 13:42:34;;;;;;;7.93;4.05;;;;;;;;;;5038525;28;20048;-73
2023/06/21 13:45:00;;;;;;;9.38;5.07;;;;;;;;;;5075471;28;20028;-71
2023/06/21 13:47:25;;;;;;;9.75;4.40;;;;;;;;;;5075339;28;20025;-72
2023/06/21 13:49:50;;;;;;;8.90;4.63;;;;;;;;;;5075291;28;20020;-72
2023/06/21 13:52:19;;;;;;;9.70;5.05;;;;;;;;;;5074903;28;20070;-73
2023/06/21 13:54:44;;;;;;;10.30;4.85;;;;;;;;;;5069758;28;20028;-73
2023/06/21 13:57:14;;;;;;;6.80;4.43;;;;;;;;;;5060070;28;20119;-73
2023/06/21 13:59:40;;;;;;;9.75;4.47;;;;;;;;;;5053275;28;20052;-73
2023/06/21 14:02:05;;;;;;;11.15;5.68;;;;;;;;;;5062654;28;20067;-73
2023/06/21 14:04:31;;;;;;;8.07;4.63;;;;;;;;;;5074925;28;20055;-72
2023/06/21 14:06:56;;;;;;;5.63;3.90;;;;;;;;;;5071706;28;20020;-73
2023/06/21 14:09:21;;;;;;;10.85;4.65;;;;;;;;;;5055287;28;20025;-72
2023/06/21 14:11:46;;;;;;;8.75;4.90;;;;;;;;;;5054908;28;20060;-72
2023/06/21 14:14:12;;;;;;;8.38;4.45;;;;;;;;;;5054852;28;20021;-72
2023/06/21 14:16:37;;;;;;;9.13;5.03;;;;;;;;;;5054487;28;20100;-73
2023/06/21 14:19:03;;;;;;;7.22;5.50;;;;;;;;;;5063596;28;20424;-73
2023/06/21 14:21:28;;;;;;;11.60;4.28;;;;;;;;;;5074493;28;20482;-72
2023/06/21 14:23:54;;;;;;;6.07;3.95;;;;;;;;;;5074309;28;20078;-73